Time;durP1;ratioP1;P1;durP2;ratioP2;P2;SDS_P1;SDS_P2;PMS_P1;PMS_P2;Temp;Humidity;BMP_temperature;BMP_pressure;BME280_temperature;BME280_humidity;BME280_pressure;Samples;Min_cycle;Max_cycle;Signal;HPM_P1;HPM_P2
2022/10/11 00:00:58;;;;;;;;;;;19.20;99.90;;;;;;5013245;28;19914;-24
2022/10/11 00:03:24;;;;;;;;;;;19.20;99.90;;;;;;5013255;28;19945;-24
2022/10/11 00:05:49;;;;;;;;;;;19.20;99.90;;;;;;5012757;28;19906;-24
2022/10/11 00:08:16;;;;;;;;;;;19.10;99.90;;;;;;5011730;28;19960;-24
2022/10/11 00:10:41;;;;;;;;;;;19.20;99.90;;;;;;5013703;28;19906;-24
2022/10/11 00:13:07;;;;;;;;;;;19.10;99.90;;;;;;5013479;28;19916;-24
2022/10/11 00:15:33;;;;;;;;;;;19.10;99.90;;;;;;5014263;28;19905;-23
2022/10/11 00:17:58;;;;;;;;;;;19.10;99.90;;;;;;5014109;28;19920;-24
2022/10/11 00:20:25;;;;;;;;;;;19.10;99.90;;;;;;5012714;28;19916;-24
2022/10/11 00:22:51;;;;;;;;;;;19.20;99.90;;;;;;5013434;28;19905;-24
2022/10/11 00:25:17;;;;;;;;;;;19.10;99.90;;;;;;5013184;28;19916;-24
2022/10/11 00:27:42;;;;;;;;;;;19.10;99.90;;;;;;5013449;28;19917;-24
2022/10/11 00:30:09;;;;;;;;;;;19.10;99.90;;;;;;5013793;28;19906;-24
2022/10/11 00:32:35;;;;;;;;;;;19.10;99.90;;;;;;5012323;28;19992;-24
2022/10/11 00:35:05;;;;;;;;;;;19.20;99.90;;;;;;5013737;28;19948;-24
2022/10/11 00:37:34;;;;;;;;;;;19.20;99.90;;;;;;5013572;28;19917;-24
2022/10/11 00:40:00;;;;;;;;;;;19.10;99.90;;;;;;5013500;28;19909;-24
2022/10/11 00:42:25;;;;;;;;;;;19.10;99.90;;;;;;5013384;28;20325;-24
2022/10/11 00:44:51;;;;;;;;;;;19.10;99.90;;;;;;5012465;28;19906;-24
2022/10/11 00:47:18;;;;;;;;;;;19.10;99.90;;;;;;5012413;28;19906;-24
2022/10/11 00:49:48;;;;;;;;;;;19.10;99.90;;;;;;5012463;28;19921;-24
2022/10/11 00:52:30;;;;;;;;;;;19.10;99.90;;;;;;5012118;28;19906;-23
2022/10/11 00:54:57;;;;;;;;;;;19.10;99.90;;;;;;5012372;28;20330;-24
2022/10/11 00:57:23;;;;;;;;;;;19.10;99.90;;;;;;5010714;28;20433;-24
2022/10/11 00:59:51;;;;;;;;;;;19.10;99.90;;;;;;5012002;28;20007;-24
2022/10/11 01:02:16;;;;;;;;;;;19.10;99.90;;;;;;5011958;28;19909;-24
2022/10/11 01:04:42;;;;;;;;;;;19.10;99.90;;;;;;5011676;28;19905;-24
2022/10/11 01:07:09;;;;;;;;;;;19.10;99.90;;;;;;5011769;28;19905;-24
2022/10/11 01:09:34;;;;;;;;;;;19.10;99.90;;;;;;5011891;28;20363;-24
2022/10/11 01:12:01;;;;;;;;;;;19.10;99.90;;;;;;5011735;28;19915;-24
2022/10/11 01:14:42;;;;;;;;;;;19.00;99.90;;;;;;5011764;28;19967;-24
2022/10/11 01:20:02;;;;;;;;;;;19.00;99.90;;;;;;5028308;28;19921;-26
2022/10/11 01:22:28;;;;;;;;;;;19.10;99.90;;;;;;5032005;28;20362;-25
2022/10/11 01:24:59;;;;;;;;;;;19.00;99.90;;;;;;5032440;28;19992;-26
2022/10/11 01:27:27;;;;;;;;;;;19.10;99.90;;;;;;5032012;28;20243;-26
2022/10/11 01:30:02;;;;;;;;;;;19.00;99.90;;;;;;5031867;28;19912;-25
2022/10/11 01:32:30;;;;;;;;;;;19.10;99.90;;;;;;5032116;28;19905;-27
2022/10/11 01:35:05;;;;;;;;;;;19.10;99.90;;;;;;5032029;28;20271;-27
2022/10/11 01:37:36;;;;;;;;;;;19.00;99.90;;;;;;5032407;28;19908;-26
2022/10/11 01:40:04;;;;;;;;;;;19.10;99.90;;;;;;5031853;28;19960;-26
2022/10/11 01:42:30;;;;;;;;;;;19.10;99.90;;;;;;5031708;28;19968;-26
2022/10/11 01:44:57;;;;;;;;;;;19.10;99.90;;;;;;5032042;28;19963;-26
2022/10/11 01:47:23;;;;;;;;;;;19.10;99.90;;;;;;5032286;28;19909;-25
2022/10/11 01:49:53;;;;;;;;;;;19.00;99.90;;;;;;5032202;28;20035;-25
2022/10/11 01:52:18;;;;;;;;;;;19.00;99.90;;;;;;5031889;28;19909;-27
2022/10/11 01:54:49;;;;;;;;;;;19.00;99.90;;;;;;5031601;28;19913;-27
2022/10/11 01:57:30;;;;;;;;;;;19.00;99.90;;;;;;5031662;28;19905;-26
2022/10/11 02:00:00;;;;;;;;;;;19.00;99.90;;;;;;5031990;28;20421;-25
2022/10/11 02:02:32;;;;;;;;;;;19.00;99.90;;;;;;5031774;28;19905;-23
2022/10/11 02:05:11;;;;;;;;;;;19.00;99.90;;;;;;5031857;28;20273;-26
2022/10/11 02:07:36;;;;;;;;;;;19.00;99.90;;;;;;5031660;28;19909;-26
2022/10/11 02:10:18;;;;;;;;;;;19.00;99.90;;;;;;5031979;28;20382;-26
2022/10/11 02:12:51;;;;;;;;;;;19.00;99.90;;;;;;5031494;28;20425;-26
2022/10/11 02:15:17;;;;;;;;;;;19.00;99.90;;;;;;5031654;28;19905;-26
2022/10/11 02:17:48;;;;;;;;;;;19.00;99.90;;;;;;5031237;28;19920;-25
2022/10/11 02:20:17;;;;;;;;;;;19.00;99.90;;;;;;5031708;28;19956;-26
2022/10/11 02:22:45;;;;;;;;;;;19.00;99.90;;;;;;5031348;28;19905;-27
2022/10/11 02:25:15;;;;;;;;;;;19.00;99.90;;;;;;5030324;28;19916;-25
2022/10/11 02:27:41;;;;;;;;;;;19.00;99.90;;;;;;5031460;28;19908;-27
2022/10/11 02:30:07;;;;;;;;;;;19.00;99.90;;;;;;5033959;28;19936;-25
2022/10/11 02:32:35;;;;;;;;;;;18.90;99.90;;;;;;5034755;28;19908;-27
2022/10/11 02:35:01;;;;;;;;;;;19.00;99.90;;;;;;5035113;28;19909;-27
2022/10/11 02:37:33;;;;;;;;;;;19.00;99.90;;;;;;5034849;28;20361;-26
2022/10/11 02:40:11;;;;;;;;;;;18.90;99.90;;;;;;5034916;28;19905;-27
2022/10/11 02:42:38;;;;;;;;;;;18.90;99.90;;;;;;5034754;28;19905;-25
2022/10/11 02:45:19;;;;;;;;;;;18.90;99.90;;;;;;5034890;28;19912;-25
2022/10/11 02:47:45;;;;;;;;;;;18.90;99.90;;;;;;5034747;28;19936;-25
2022/10/11 02:50:11;;;;;;;;;;;18.90;99.90;;;;;;5034649;28;19948;-27
2022/10/11 02:52:37;;;;;;;;;;;18.90;99.90;;;;;;5034487;28;20007;-27
2022/10/11 02:55:03;;;;;;;;;;;18.90;99.90;;;;;;5034746;28;19959;-25
2022/10/11 02:57:28;;;;;;;;;;;18.90;99.90;;;;;;5034131;28;19909;-27
2022/10/11 02:59:54;;;;;;;;;;;18.90;99.90;;;;;;5034431;28;20004;-25
2022/10/11 03:02:19;;;;;;;;;;;18.90;99.90;;;;;;5034567;28;20015;-27
2022/10/11 03:04:45;;;;;;;;;;;18.90;99.90;;;;;;5034492;28;19959;-27
2022/10/11 03:07:10;;;;;;;;;;;18.90;99.90;;;;;;5034268;28;19931;-26
2022/10/11 03:09:36;;;;;;;;;;;18.80;99.90;;;;;;5034007;28;19916;-27
2022/10/11 03:12:02;;;;;;;;;;;18.90;99.90;;;;;;5034328;28;19905;-26
2022/10/11 03:14:27;;;;;;;;;;;18.90;99.90;;;;;;5034047;28;20380;-26
2022/10/11 03:16:53;;;;;;;;;;;18.90;99.90;;;;;;5034587;28;19905;-26
2022/10/11 03:19:18;;;;;;;;;;;18.80;99.90;;;;;;5034036;28;19917;-27
2022/10/11 03:21:44;;;;;;;;;;;18.80;99.90;;;;;;5034237;28;19913;-25
2022/10/11 03:24:09;;;;;;;;;;;18.80;99.90;;;;;;5033797;28;19909;-25
2022/10/11 03:26:35;;;;;;;;;;;18.80;99.90;;;;;;5033860;28;19912;-26
2022/10/11 03:29:01;;;;;;;;;;;18.80;99.90;;;;;;5033724;28;20404;-27
2022/10/11 03:31:26;;;;;;;;;;;18.80;99.90;;;;;;5034074;28;19912;-25
2022/10/11 03:33:52;;;;;;;;;;;18.80;99.90;;;;;;5033657;28;19990;-26
2022/10/11 03:36:17;;;;;;;;;;;18.80;99.90;;;;;;5033958;28;20289;-25
2022/10/11 03:38:42;;;;;;;;;;;18.80;99.90;;;;;;5033680;28;19905;-27
2022/10/11 03:41:08;;;;;;;;;;;18.80;99.90;;;;;;5033110;28;20350;-26
2022/10/11 03:43:34;;;;;;;;;;;18.80;99.90;;;;;;5033478;28;20012;-26
2022/10/11 03:45:59;;;;;;;;;;;18.80;99.90;;;;;;5033669;28;19988;-26
2022/10/11 03:48:25;;;;;;;;;;;18.80;99.90;;;;;;5033436;28;19909;-27
2022/10/11 03:50:51;;;;;;;;;;;18.80;99.90;;;;;;5033302;28;19913;-26
2022/10/11 03:53:16;;;;;;;;;;;18.80;99.90;;;;;;5033370;28;19912;-26
2022/10/11 03:55:42;;;;;;;;;;;18.80;99.90;;;;;;5033219;28;19912;-25
2022/10/11 03:58:07;;;;;;;;;;;18.80;99.90;;;;;;5033181;28;20263;-25
2022/10/11 04:00:33;;;;;;;;;;;18.80;99.90;;;;;;5033393;28;19912;-27
2022/10/11 04:02:59;;;;;;;;;;;18.80;99.90;;;;;;5033212;28;19905;-26
2022/10/11 04:05:24;;;;;;;;;;;18.80;99.90;;;;;;5033367;28;19912;-26
2022/10/11 04:07:50;;;;;;;;;;;18.80;99.90;;;;;;5033190;28;19916;-25
2022/10/11 04:10:15;;;;;;;;;;;18.80;99.90;;;;;;5033019;28;20259;-26
2022/10/11 04:12:41;;;;;;;;;;;18.80;99.90;;;;;;5033066;28;19909;-26
2022/10/11 04:15:07;;;;;;;;;;;18.70;99.90;;;;;;5033213;28;19916;-25
2022/10/11 04:17:32;;;;;;;;;;;18.70;99.90;;;;;;5032834;28;20313;-25
2022/10/11 04:19:58;;;;;;;;;;;18.70;99.90;;;;;;5033426;28;19951;-27
2022/10/11 04:22:23;;;;;;;;;;;18.70;99.90;;;;;;5032870;28;19905;-25
2022/10/11 04:24:49;;;;;;;;;;;18.70;99.90;;;;;;5032691;28;20377;-26
2022/10/11 04:27:14;;;;;;;;;;;18.70;99.90;;;;;;5032691;28;19959;-25
2022/10/11 04:29:40;;;;;;;;;;;18.70;99.90;;;;;;5032808;28;19920;-26
2022/10/11 04:32:05;;;;;;;;;;;18.70;99.90;;;;;;5033007;28;19905;-25
2022/10/11 04:34:31;;;;;;;;;;;18.70;99.90;;;;;;5032593;28;19905;-26
2022/10/11 04:36:56;;;;;;;;;;;18.70;99.90;;;;;;5032567;28;19912;-25
2022/10/11 04:39:22;;;;;;;;;;;18.70;99.90;;;;;;5032641;28;19905;-25
2022/10/11 04:41:47;;;;;;;;;;;18.70;99.90;;;;;;5032328;28;19905;-25
2022/10/11 04:44:13;;;;;;;;;;;18.70;99.90;;;;;;5032353;28;19909;-25
2022/10/11 04:46:38;;;;;;;;;;;18.70;99.90;;;;;;5032433;28;19909;-27
2022/10/11 04:49:06;;;;;;;;;;;18.70;99.90;;;;;;5032522;28;19913;-25
2022/10/11 04:51:32;;;;;;;;;;;18.70;99.90;;;;;;5032030;28;20370;-26
2022/10/11 04:53:58;;;;;;;;;;;18.70;99.90;;;;;;5032328;28;19905;-27
2022/10/11 04:56:23;;;;;;;;;;;18.70;99.90;;;;;;5032076;28;19963;-24
2022/10/11 04:58:52;;;;;;;;;;;18.70;99.90;;;;;;5032101;28;20199;-25
2022/10/11 05:01:18;;;;;;;;;;;18.70;99.90;;;;;;5032264;28;20425;-25
2022/10/11 05:03:44;;;;;;;;;;;18.70;99.90;;;;;;5032374;28;20004;-25
2022/10/11 05:06:09;;;;;;;;;;;18.70;99.90;;;;;;5032659;28;19916;-25
2022/10/11 05:08:37;;;;;;;;;;;18.70;99.90;;;;;;5032130;28;19920;-25
2022/10/11 05:11:04;;;;;;;;;;;18.70;99.90;;;;;;5032296;28;20247;-25
2022/10/11 05:13:30;;;;;;;;;;;18.70;99.90;;;;;;5031914;28;19913;-26
2022/10/11 05:15:56;;;;;;;;;;;18.70;99.90;;;;;;5030934;28;19947;-24
2022/10/11 05:18:22;;;;;;;;;;;18.70;99.90;;;;;;5031860;28;19921;-26
2022/10/11 05:20:47;;;;;;;;;;;18.70;99.90;;;;;;5032191;28;19905;-26
2022/10/11 05:23:13;;;;;;;;;;;18.60;99.90;;;;;;5031761;28;19927;-25
2022/10/11 05:25:38;;;;;;;;;;;18.70;99.90;;;;;;5032043;28;19959;-26
2022/10/11 05:28:04;;;;;;;;;;;18.70;99.90;;;;;;5031679;28;19916;-25
2022/10/11 05:30:29;;;;;;;;;;;18.60;99.90;;;;;;5032048;28;20004;-25
2022/10/11 05:32:55;;;;;;;;;;;18.70;99.90;;;;;;5031844;28;19912;-26
2022/10/11 05:35:21;;;;;;;;;;;18.60;99.90;;;;;;5031898;28;19916;-26
2022/10/11 05:37:46;;;;;;;;;;;18.60;99.90;;;;;;5031654;28;20341;-25
2022/10/11 05:40:12;;;;;;;;;;;18.70;99.90;;;;;;5031990;28;19909;-24
2022/10/11 05:42:38;;;;;;;;;;;18.60;99.90;;;;;;5031849;28;19905;-25
2022/10/11 05:45:04;;;;;;;;;;;18.60;99.90;;;;;;5031677;28;20370;-26
2022/10/11 05:47:30;;;;;;;;;;;18.60;99.90;;;;;;5031690;28;20298;-26
2022/10/11 05:49:55;;;;;;;;;;;18.60;99.90;;;;;;5031872;28;19909;-26
2022/10/11 05:52:21;;;;;;;;;;;18.60;99.90;;;;;;5031931;28;19976;-25
2022/10/11 05:54:47;;;;;;;;;;;18.60;99.90;;;;;;5031853;28;19959;-27
2022/10/11 05:57:12;;;;;;;;;;;18.60;99.90;;;;;;5031906;28;19909;-25
2022/10/11 05:59:38;;;;;;;;;;;18.60;99.90;;;;;;5031743;28;19909;-25
2022/10/11 06:02:03;;;;;;;;;;;18.60;99.90;;;;;;5031706;28;19995;-25
2022/10/11 06:04:29;;;;;;;;;;;18.60;99.90;;;;;;5033171;28;19951;-24
2022/10/11 06:06:54;;;;;;;;;;;18.60;99.90;;;;;;5035229;28;19967;-25
2022/10/11 06:09:20;;;;;;;;;;;18.60;99.90;;;;;;5035215;28;19943;-25
2022/10/11 06:11:45;;;;;;;;;;;18.60;99.90;;;;;;5035459;28;19972;-25
2022/10/11 06:14:11;;;;;;;;;;;18.60;99.90;;;;;;5035302;28;19916;-24
2022/10/11 06:16:36;;;;;;;;;;;18.60;99.90;;;;;;5035209;28;19905;-25
2022/10/11 06:19:03;;;;;;;;;;;18.50;99.90;;;;;;5034840;28;19935;-25
2022/10/11 06:21:29;;;;;;;;;;;18.60;99.90;;;;;;5035179;28;19936;-25
2022/10/11 06:23:54;;;;;;;;;;;18.50;99.90;;;;;;5034855;28;19942;-25
2022/10/11 06:26:20;;;;;;;;;;;18.50;99.90;;;;;;5034946;28;20398;-25
2022/10/11 06:28:45;;;;;;;;;;;18.60;99.90;;;;;;5034782;28;19909;-25
2022/10/11 06:31:14;;;;;;;;;;;18.50;99.90;;;;;;5035109;28;20371;-25
2022/10/11 06:33:39;;;;;;;;;;;18.50;99.90;;;;;;5034680;28;19909;-24
2022/10/11 06:36:07;;;;;;;;;;;18.50;99.90;;;;;;5034606;28;20004;-26
2022/10/11 06:38:32;;;;;;;;;;;18.50;99.90;;;;;;5034743;28;20012;-25
2022/10/11 06:41:07;;;;;;;;;;;18.50;99.90;;;;;;5034883;28;20367;-25
2022/10/11 06:43:33;;;;;;;;;;;18.50;99.90;;;;;;5034423;28;20401;-25
2022/10/11 06:45:59;;;;;;;;;;;18.50;99.90;;;;;;5034588;28;19905;-27
2022/10/11 06:48:24;;;;;;;;;;;18.50;99.90;;;;;;5034406;28;19936;-24
2022/10/11 06:50:49;;;;;;;;;;;18.50;99.90;;;;;;5034456;28;20226;-26
2022/10/11 06:53:15;;;;;;;;;;;18.50;99.90;;;;;;5034405;28;19968;-27
2022/10/11 06:55:40;;;;;;;;;;;18.50;99.90;;;;;;5034769;28;19966;-25
2022/10/11 06:58:06;;;;;;;;;;;18.50;99.90;;;;;;5033723;28;20006;-25
2022/10/11 07:00:31;;;;;;;;;;;18.50;99.90;;;;;;5033693;28;19916;-25
2022/10/11 07:02:57;;;;;;;;;;;18.50;99.90;;;;;;5033655;28;20274;-26
2022/10/11 07:05:22;;;;;;;;;;;18.50;99.90;;;;;;5033845;28;19916;-25
2022/10/11 07:07:48;;;;;;;;;;;18.50;99.90;;;;;;5034024;28;19912;-25
2022/10/11 07:10:13;;;;;;;;;;;18.40;99.90;;;;;;5034010;28;19905;-26
2022/10/11 07:12:42;;;;;;;;;;;18.40;99.90;;;;;;5033923;28;19912;-26
2022/10/11 07:15:09;;;;;;;;;;;18.40;99.90;;;;;;5032490;28;20028;-25
2022/10/11 07:17:34;;;;;;;;;;;18.50;99.90;;;;;;5034278;28;19912;-25
2022/10/11 07:20:00;;;;;;;;;;;18.40;99.90;;;;;;5033522;28;20131;-25
2022/10/11 07:22:26;;;;;;;;;;;18.40;99.90;;;;;;5033446;28;20317;-24
2022/10/11 07:24:51;;;;;;;;;;;18.40;99.90;;;;;;5033872;28;19996;-25
2022/10/11 07:27:17;;;;;;;;;;;18.40;99.90;;;;;;5033113;28;19908;-25
2022/10/11 07:29:42;;;;;;;;;;;18.40;99.90;;;;;;5034703;28;20008;-24
2022/10/11 07:32:08;;;;;;;;;;;18.40;99.90;;;;;;5033142;28;19909;-25
2022/10/11 07:34:33;;;;;;;;;;;18.40;99.90;;;;;;5034093;28;19945;-25
2022/10/11 07:36:58;;;;;;;;;;;18.40;99.90;;;;;;5033622;28;19905;-25
2022/10/11 07:39:24;;;;;;;;;;;18.40;99.90;;;;;;5033274;28;19905;-24
2022/10/11 07:41:49;;;;;;;;;;;18.40;99.90;;;;;;5033270;28;19957;-25
2022/10/11 07:44:15;;;;;;;;;;;18.40;99.90;;;;;;5033310;28;20354;-25
2022/10/11 07:46:40;;;;;;;;;;;18.40;99.90;;;;;;5033088;28;19956;-24
2022/10/11 07:49:06;;;;;;;;;;;18.40;99.90;;;;;;5032714;28;20003;-25
2022/10/11 07:51:32;;;;;;;;;;;18.40;99.90;;;;;;5032087;28;19904;-25
2022/10/11 07:53:57;;;;;;;;;;;18.40;99.90;;;;;;5032726;28;19905;-25
2022/10/11 07:56:24;;;;;;;;;;;18.20;99.90;;;;;;5032842;28;19905;-25
2022/10/11 07:58:51;;;;;;;;;;;18.10;99.90;;;;;;5031373;28;19909;-25
2022/10/11 08:01:17;;;;;;;;;;;18.20;99.90;;;;;;5032624;28;20321;-26
2022/10/11 08:03:43;;;;;;;;;;;18.20;99.90;;;;;;5031032;28;20000;-26
2022/10/11 08:06:09;;;;;;;;;;;18.30;99.90;;;;;;5032631;28;19905;-26
2022/10/11 08:08:36;;;;;;;;;;;18.40;99.90;;;;;;5032437;28;19913;-26
2022/10/11 08:11:04;;;;;;;;;;;18.40;99.90;;;;;;5032884;28;20320;-25
2022/10/11 08:13:30;;;;;;;;;;;18.40;99.90;;;;;;5030889;28;20322;-26
2022/10/11 08:15:55;;;;;;;;;;;18.50;99.90;;;;;;5032423;28;20009;-25
2022/10/11 08:18:21;;;;;;;;;;;18.40;99.90;;;;;;5032096;28;19923;-26
2022/10/11 08:20:46;;;;;;;;;;;18.40;99.90;;;;;;5032554;28;19905;-25
2022/10/11 08:23:12;;;;;;;;;;;18.50;99.90;;;;;;5032096;28;20282;-25
2022/10/11 08:25:39;;;;;;;;;;;18.50;99.90;;;;;;5030971;28;19997;-25
2022/10/11 08:28:04;;;;;;;;;;;18.50;99.90;;;;;;5031666;28;20445;-25
2022/10/11 08:30:30;;;;;;;;;;;18.50;99.90;;;;;;5032161;28;19992;-25
2022/10/11 08:32:56;;;;;;;;;;;18.50;99.90;;;;;;5031938;28;20204;-25
2022/10/11 08:35:21;;;;;;;;;;;18.50;99.90;;;;;;5014286;28;19909;-26
2022/10/11 08:37:47;;;;;;;;;;;18.50;99.90;;;;;;5032204;28;19905;-25
2022/10/11 08:40:14;;;;;;;;;;;18.30;99.90;;;;;;5032104;28;20350;-25
2022/10/11 08:42:43;;;;;;;;;;;18.10;99.90;;;;;;5031780;28;20239;-24
2022/10/11 08:45:15;;;;;;;;;;;18.10;99.90;;;;;;5030645;28;20374;-25
2022/10/11 08:47:44;;;;;;;;;;;18.10;99.90;;;;;;5031938;28;20366;-24
2022/10/11 08:50:15;;;;;;;;;;;18.10;99.90;;;;;;5032084;28;19963;-25
2022/10/11 08:52:43;;;;;;;;;;;18.20;99.90;;;;;;5031452;28;19951;-24
2022/10/11 08:55:24;;;;;;;;;;;18.20;99.90;;;;;;5031811;28;19913;-25
2022/10/11 08:57:52;;;;;;;;;;;18.20;99.90;;;;;;5031379;28;19905;-24
2022/10/11 09:00:18;;;;;;;;;;;18.20;99.90;;;;;;5031492;28;19962;-24
2022/10/11 09:02:56;;;;;;;;;;;18.30;99.90;;;;;;5031575;28;19905;-25
2022/10/11 09:05:23;;;;;;;;;;;18.30;99.90;;;;;;5031720;28;19913;-26
2022/10/11 09:08:09;;;;;;;;;;;18.30;99.90;;;;;;5031716;28;19905;-25
2022/10/11 09:10:42;;;;;;;;;;;18.30;99.90;;;;;;5031352;28;20341;-25
2022/10/11 09:13:14;;;;;;;;;;;18.30;99.90;;;;;;5031706;28;19963;-25
2022/10/11 09:15:42;;;;;;;;;;;18.30;99.90;;;;;;5031845;28;20049;-24
2022/10/11 09:18:13;;;;;;;;;;;18.30;99.90;;;;;;5031638;28;19913;-24
2022/10/11 09:20:48;;;;;;;;;;;18.40;99.90;;;;;;5031783;28;20294;-25
2022/10/11 09:23:13;;;;;;;;;;;18.30;99.90;;;;;;5030297;28;19905;-25
2022/10/11 09:25:50;;;;;;;;;;;18.40;99.90;;;;;;5031870;28;19916;-25
2022/10/11 09:28:22;;;;;;;;;;;18.40;99.90;;;;;;5031746;28;19909;-24
2022/10/11 09:30:51;;;;;;;;;;;18.30;99.90;;;;;;5030212;28;19905;-24
2022/10/11 09:33:23;;;;;;;;;;;18.40;99.90;;;;;;5031148;28;19916;-24
2022/10/11 09:35:50;;;;;;;;;;;18.40;99.90;;;;;;5030058;28;19936;-24
2022/10/11 09:38:24;;;;;;;;;;;18.40;99.90;;;;;;5031511;28;20381;-26
2022/10/11 09:41:28;;;;;;;;;;;18.40;99.90;;;;;;5035404;28;19960;-25
2022/10/11 09:46:57;;;;;;;;;;;18.40;99.90;;;;;;5025959;28;19952;-24
2022/10/11 09:49:43;;;;;;;;;;;18.40;99.90;;;;;;5034051;28;19909;-25
2022/10/11 09:52:19;;;;;;;;;;;18.40;99.90;;;;;;5030470;28;20017;-25
2022/10/11 09:54:55;;;;;;;;;;;18.40;99.90;;;;;;5035279;28;19932;-24
2022/10/11 09:57:26;;;;;;;;;;;18.40;99.90;;;;;;5035305;28;19913;-24
2022/10/11 09:59:59;;;;;;;;;;;18.40;99.90;;;;;;5035155;28;20433;-26
2022/10/11 10:02:25;;;;;;;;;;;18.40;99.90;;;;;;5033577;28;19905;-24
2022/10/11 10:05:02;;;;;;;;;;;18.40;99.90;;;;;;5033866;28;19963;-24
2022/10/11 10:07:29;;;;;;;;;;;18.40;99.90;;;;;;5033562;28;19905;-24
2022/10/11 10:09:55;;;;;;;;;;;18.40;99.90;;;;;;5033767;28;19932;-24
2022/10/11 10:12:24;;;;;;;;;;;18.40;99.90;;;;;;5035348;28;19959;-25
2022/10/11 10:14:54;;;;;;;;;;;18.50;99.90;;;;;;5034663;28;20075;-25
2022/10/11 10:17:20;;;;;;;;;;;18.40;99.90;;;;;;5034762;28;19908;-24
2022/10/11 10:19:49;;;;;;;;;;;18.40;99.90;;;;;;5034979;28;19955;-26
2022/10/11 10:22:19;;;;;;;;;;;18.40;99.90;;;;;;5017097;28;20323;-24
2022/10/11 10:24:45;;;;;;;;;;;18.40;99.90;;;;;;5034755;28;19932;-25
2022/10/11 10:27:21;;;;;;;;;;;18.40;99.90;;;;;;5034623;28;19909;-24
2022/10/11 10:30:02;;;;;;;;;;;18.40;99.90;;;;;;5033292;28;19916;-24
2022/10/11 10:32:35;;;;;;;;;;;18.40;99.90;;;;;;5032924;28;19963;-24
2022/10/11 10:35:15;;;;;;;;;;;18.40;99.90;;;;;;5034937;28;19905;-25
2022/10/11 10:37:42;;;;;;;;;;;18.40;99.90;;;;;;5034401;28;19909;-26
2022/10/11 10:40:12;;;;;;;;;;;18.30;99.90;;;;;;5034379;28;20384;-25
2022/10/11 10:42:38;;;;;;;;;;;18.30;99.90;;;;;;5034237;28;19933;-25
2022/10/11 10:45:04;;;;;;;;;;;18.30;99.90;;;;;;5034462;28;19951;-26
2022/10/11 10:47:38;;;;;;;;;;;18.30;99.90;;;;;;5034341;28;19905;-25
2022/10/11 10:50:10;;;;;;;;;;;18.30;99.90;;;;;;5032654;28;19913;-25
2022/10/11 10:52:57;;;;;;;;;;;18.40;99.90;;;;;;5033825;28;19905;-25
2022/10/11 10:55:46;;;;;;;;;;;18.40;99.90;;;;;;5034250;28;19952;-26
2022/10/11 10:58:30;;;;;;;;;;;18.30;99.90;;;;;;5029740;28;19935;-26
2022/10/11 11:01:03;;;;;;;;;;;18.30;99.90;;;;;;5034083;28;19909;-24
2022/10/11 11:03:40;;;;;;;;;;;18.30;99.90;;;;;;5032861;28;19905;-24
2022/10/11 11:06:06;;;;;;;;;;;18.30;99.90;;;;;;5034171;28;19905;-24
2022/10/11 11:08:38;;;;;;;;;;;18.40;99.90;;;;;;5033854;28;19909;-26
2022/10/11 11:11:11;;;;;;;;;;;18.40;99.90;;;;;;5033933;28;19912;-24
2022/10/11 11:13:37;;;;;;;;;;;18.40;99.90;;;;;;5033712;28;19905;-25
2022/10/11 11:16:03;;;;;;;;;;;18.40;99.90;;;;;;5032646;28;19905;-26
2022/10/11 11:18:34;;;;;;;;;;;18.30;99.90;;;;;;5032384;28;19917;-25
2022/10/11 11:21:00;;;;;;;;;;;18.30;99.90;;;;;;5034418;28;19916;-24
2022/10/11 11:23:36;;;;;;;;;;;18.30;99.90;;;;;;5033852;28;19909;-25
2022/10/11 11:26:21;;;;;;;;;;;18.30;99.90;;;;;;5034400;28;20388;-25
2022/10/11 11:29:02;;;;;;;;;;;18.20;99.90;;;;;;5033984;28;19908;-25
2022/10/11 11:31:39;;;;;;;;;;;18.00;99.90;;;;;;5033418;28;19947;-26
2022/10/11 11:34:16;;;;;;;;;;;18.00;99.90;;;;;;5033538;28;19905;-26
2022/10/11 11:36:47;;;;;;;;;;;18.10;99.90;;;;;;5033506;28;19912;-26
2022/10/11 11:39:19;;;;;;;;;;;18.20;99.90;;;;;;5033402;28;19979;-25
2022/10/11 11:41:54;;;;;;;;;;;18.30;99.90;;;;;;5033216;28;19924;-26
2022/10/11 11:44:22;;;;;;;;;;;18.30;99.90;;;;;;5033406;28;19952;-26
2022/10/11 11:47:20;;;;;;;;;;;18.30;99.90;;;;;;5032984;28;20360;-26
2022/10/11 11:49:48;;;;;;;;;;;18.30;99.90;;;;;;5020685;28;19920;-26
2022/10/11 11:52:35;;;;;;;;;;;18.30;99.90;;;;;;5031680;28;19905;-26
2022/10/11 11:55:16;;;;;;;;;;;18.30;99.90;;;;;;5032929;28;19905;-25
2022/10/11 11:57:48;;;;;;;;;;;18.30;99.90;;;;;;5032679;28;19909;-26
2022/10/11 12:00:14;;;;;;;;;;;18.40;99.90;;;;;;5032842;28;19912;-26
2022/10/11 12:02:53;;;;;;;;;;;18.30;99.90;;;;;;5031698;28;19905;-25
2022/10/11 12:05:25;;;;;;;;;;;18.30;99.90;;;;;;5032598;28;19927;-25
2022/10/11 12:08:04;;;;;;;;;;;18.30;99.90;;;;;;5032699;28;19905;-26
2022/10/11 12:10:48;;;;;;;;;;;18.30;99.90;;;;;;5032674;28;19909;-25
2022/10/11 12:13:25;;;;;;;;;;;18.40;99.90;;;;;;5032350;28;20385;-25
2022/10/11 12:16:08;;;;;;;;;;;18.30;99.90;;;;;;5032424;28;19909;-26
2022/10/11 12:18:44;;;;;;;;;;;18.30;99.90;;;;;;5032308;28;20374;-25
2022/10/11 12:21:16;;;;;;;;;;;18.30;99.90;;;;;;5032479;28;19905;-26
2022/10/11 12:23:43;;;;;;;;;;;18.30;99.90;;;;;;5032140;28;19931;-25
2022/10/11 12:26:17;;;;;;;;;;;18.30;99.90;;;;;;5030854;28;20366;-25
2022/10/11 12:28:47;;;;;;;;;;;18.30;99.90;;;;;;5032158;28;20324;-26
2022/10/11 12:31:18;;;;;;;;;;;18.30;99.90;;;;;;5032336;28;19905;-25
2022/10/11 12:33:49;;;;;;;;;;;18.30;99.90;;;;;;5032098;28;19905;-25
2022/10/11 12:36:29;;;;;;;;;;;18.30;99.90;;;;;;5032221;28;20290;-25
2022/10/11 12:39:13;;;;;;;;;;;18.30;99.90;;;;;;5032016;28;19909;-25
2022/10/11 12:41:54;;;;;;;;;;;18.40;99.90;;;;;;5032034;28;20354;-26
2022/10/11 12:44:27;;;;;;;;;;;18.40;99.90;;;;;;5032039;28;19905;-24
2022/10/11 12:46:53;;;;;;;;;;;18.40;99.90;;;;;;5032379;28;19905;-25
2022/10/11 12:49:24;;;;;;;;;;;18.30;99.90;;;;;;5031809;28;19932;-25
2022/10/11 12:51:56;;;;;;;;;;;18.30;99.90;;;;;;5031834;28;19905;-26
2022/10/11 12:54:21;;;;;;;;;;;18.30;99.90;;;;;;5031780;28;20016;-25
2022/10/11 12:56:53;;;;;;;;;;;18.30;99.90;;;;;;5031870;28;20362;-26
2022/10/11 12:59:20;;;;;;;;;;;18.30;99.90;;;;;;5031706;28;19905;-26
2022/10/11 13:01:51;;;;;;;;;;;18.30;99.90;;;;;;5031776;28;19996;-25
2022/10/11 13:04:18;;;;;;;;;;;18.30;99.90;;;;;;5031572;28;19916;-25
2022/10/11 13:06:46;;;;;;;;;;;18.30;99.90;;;;;;5031986;28;19909;-25
2022/10/11 13:09:27;;;;;;;;;;;18.30;99.90;;;;;;5031494;28;19917;-25
2022/10/11 13:11:55;;;;;;;;;;;18.30;99.90;;;;;;5031708;28;20362;-25
2022/10/11 13:14:22;;;;;;;;;;;18.30;99.90;;;;;;5031147;28;19963;-25
2022/10/11 13:17:00;;;;;;;;;;;18.30;99.90;;;;;;5031496;28;20401;-26
2022/10/11 13:19:27;;;;;;;;;;;18.30;99.90;;;;;;5054795;22;20014;-24
2022/10/11 13:21:54;;;;;;;;;;;18.30;99.90;;;;;;5031809;28;20312;-24
2022/10/11 13:24:21;;;;;;;;;;;18.30;99.90;;;;;;5031530;28;19909;-24
2022/10/11 13:26:48;;;;;;;;;;;18.30;99.90;;;;;;5031627;28;19909;-24
2022/10/11 13:29:15;;;;;;;;;;;18.30;99.90;;;;;;5032454;28;19959;-24
2022/10/11 13:31:43;;;;;;;;;;;18.30;99.90;;;;;;5031627;28;19905;-24
2022/10/11 13:34:09;;;;;;;;;;;18.30;99.90;;;;;;5031515;28;19912;-24
2022/10/11 13:36:35;;;;;;;;;;;18.30;99.90;;;;;;5031481;28;20284;-24
2022/10/11 13:39:00;;;;;;;;;;;18.30;99.90;;;;;;5031295;28;19996;-24
2022/10/11 13:41:27;;;;;;;;;;;18.30;99.90;;;;;;5031673;28;20175;-24
2022/10/11 13:43:57;;;;;;;;;;;18.30;99.90;;;;;;5031082;28;19913;-24
2022/10/11 13:46:25;;;;;;;;;;;18.30;99.90;;;;;;5031436;28;19935;-24
2022/10/11 13:48:58;;;;;;;;;;;18.30;99.90;;;;;;5031243;28;20348;-24
2022/10/11 13:51:31;;;;;;;;;;;18.30;99.90;;;;;;5031323;28;20038;-24
2022/10/11 13:53:57;;;;;;;;;;;18.30;99.90;;;;;;5031180;28;19905;-23
2022/10/11 13:56:23;;;;;;;;;;;18.30;99.90;;;;;;5029946;28;19913;-24
2022/10/11 13:58:51;;;;;;;;;;;18.30;99.90;;;;;;5031156;28;19909;-24
2022/10/11 14:01:19;;;;;;;;;;;18.30;99.90;;;;;;5031181;28;19905;-24
2022/10/11 14:03:45;;;;;;;;;;;18.30;99.90;;;;;;5031356;28;19999;-23
2022/10/11 14:06:11;;;;;;;;;;;18.30;99.90;;;;;;5031236;28;19947;-24
2022/10/11 14:08:44;;;;;;;;;;;18.30;99.90;;;;;;5030991;28;20277;-24
2022/10/11 14:11:11;;;;;;;;;;;18.30;99.90;;;;;;5029900;28;19946;-24
2022/10/11 14:13:46;;;;;;;;;;;18.30;99.90;;;;;;5030884;28;19905;-24
2022/10/11 14:16:26;;;;;;;;;;;18.30;99.90;;;;;;5030962;28;20397;-24
2022/10/11 14:18:58;;;;;;;;;;;18.30;99.90;;;;;;5030922;28;19912;-24
2022/10/11 14:21:42;;;;;;;;;;;18.30;99.90;;;;;;5031022;28;19940;-24
2022/10/11 14:24:09;;;;;;;;;;;18.30;99.90;;;;;;5030751;28;19909;-24
2022/10/11 14:26:36;;;;;;;;;;;18.30;99.90;;;;;;5034149;28;19988;-24
2022/10/11 14:29:07;;;;;;;;;;;18.30;99.90;;;;;;5033134;28;19916;-24
2022/10/11 14:31:33;;;;;;;;;;;18.30;99.90;;;;;;5034461;28;19916;-23